sensor_id;sensor_type;location;lat;lon;timestamp;pressure;altitude;pressure_sealevel;temperature
68012;BMP180;54794;48.348;7.878;2022-09-02T00:01:17;98929.00;;;23.90
68012;BMP180;54794;48.348;7.878;2022-09-02T00:03:46;98932.00;;;23.90
68012;BMP180;54794;48.348;7.878;2022-09-02T00:06:13;98925.00;;;23.90
68012;BMP180;54794;48.348;7.878;2022-09-02T00:08:41;98920.00;;;23.90
68012;BMP180;54794;48.348;7.878;2022-09-02T00:11:13;98936.00;;;23.90
68012;BMP180;54794;48.348;7.878;2022-09-02T00:13:41;98930.00;;;23.90
68012;BMP180;54794;48.348;7.878;2022-09-02T00:16:09;98930.00;;;23.90
68012;BMP180;54794;48.348;7.878;2022-09-02T00:18:38;98939.00;;;23.80
68012;BMP180;54794;48.348;7.878;2022-09-02T00:21:11;98937.00;;;23.80
68012;BMP180;54794;48.348;7.878;2022-09-02T00:23:40;98935.00;;;23.80
68012;BMP180;54794;48.348;7.878;2022-09-02T00:26:07;98927.00;;;23.80
68012;BMP180;54794;48.348;7.878;2022-09-02T00:28:34;98924.00;;;23.70
68012;BMP180;54794;48.348;7.878;2022-09-02T00:31:02;98923.00;;;23.70
68012;BMP180;54794;48.348;7.878;2022-09-02T00:33:29;98923.00;;;23.70
68012;BMP180;54794;48.348;7.878;2022-09-02T00:35:59;98922.00;;;23.70
68012;BMP180;54794;48.348;7.878;2022-09-02T00:38:27;98927.00;;;23.70
68012;BMP180;54794;48.348;7.878;2022-09-02T00:40:54;98928.00;;;23.70
68012;BMP180;54794;48.348;7.878;2022-09-02T00:43:48;98928.00;;;23.60
68012;BMP180;54794;48.348;7.878;2022-09-02T00:46:15;98930.00;;;23.60
68012;BMP180;54794;48.348;7.878;2022-09-02T00:48:48;98917.00;;;23.60
68012;BMP180;54794;48.348;7.878;2022-09-02T00:51:16;98918.00;;;23.60
68012;BMP180;54794;48.348;7.878;2022-09-02T00:53:45;98922.00;;;23.60
68012;BMP180;54794;48.348;7.878;2022-09-02T00:56:20;98922.00;;;23.50
68012;BMP180;54794;48.348;7.878;2022-09-02T00:58:48;98920.00;;;23.50
68012;BMP180;54794;48.348;7.878;2022-09-02T01:01:16;98923.00;;;23.50
68012;BMP180;54794;48.348;7.878;2022-09-02T01:03:43;98915.00;;;23.50
68012;BMP180;54794;48.348;7.878;2022-09-02T01:06:11;98923.00;;;23.50
68012;BMP180;54794;48.348;7.878;2022-09-02T01:08:45;98924.00;;;23.50
68012;BMP180;54794;48.348;7.878;2022-09-02T01:11:13;98921.00;;;23.50
68012;BMP180;54794;48.348;7.878;2022-09-02T01:13:42;98915.00;;;23.40
68012;BMP180;54794;48.348;7.878;2022-09-02T01:16:16;98926.00;;;23.40
68012;BMP180;54794;48.348;7.878;2022-09-02T01:18:48;98924.00;;;23.40
68012;BMP180;54794;48.348;7.878;2022-09-02T01:21:15;98926.00;;;23.40
68012;BMP180;54794;48.348;7.878;2022-09-02T01:23:44;98930.00;;;23.30
68012;BMP180;54794;48.348;7.878;2022-09-02T01:26:11;98926.00;;;23.30
68012;BMP180;54794;48.348;7.878;2022-09-02T01:28:38;98915.00;;;23.30
68012;BMP180;54794;48.348;7.878;2022-09-02T01:31:05;98928.00;;;23.30
68012;BMP180;54794;48.348;7.878;2022-09-02T01:33:33;98928.00;;;23.30
68012;BMP180;54794;48.348;7.878;2022-09-02T01:36:00;98927.00;;;23.20
68012;BMP180;54794;48.348;7.878;2022-09-02T01:38:30;98918.00;;;23.20
68012;BMP180;54794;48.348;7.878;2022-09-02T01:40:57;98919.00;;;23.20
68012;BMP180;54794;48.348;7.878;2022-09-02T01:43:26;98909.00;;;23.20
68012;BMP180;54794;48.348;7.878;2022-09-02T01:45:55;98919.00;;;23.10
68012;BMP180;54794;48.348;7.878;2022-09-02T01:48:22;98913.00;;;23.10
68012;BMP180;54794;48.348;7.878;2022-09-02T01:50:58;98903.00;;;23.10
68012;BMP180;54794;48.348;7.878;2022-09-02T01:53:27;98911.00;;;23.10
68012;BMP180;54794;48.348;7.878;2022-09-02T01:55:54;98910.00;;;23.10
68012;BMP180;54794;48.348;7.878;2022-09-02T01:58:21;98897.00;;;23.10
68012;BMP180;54794;48.348;7.878;2022-09-02T02:00:48;98905.00;;;23.00
68012;BMP180;54794;48.348;7.878;2022-09-02T02:03:15;98903.00;;;23.00
68012;BMP180;54794;48.348;7.878;2022-09-02T02:05:42;98902.00;;;23.00
68012;BMP180;54794;48.348;7.878;2022-09-02T02:08:09;98907.00;;;23.00
68012;BMP180;54794;48.348;7.878;2022-09-02T02:10:36;98906.00;;;22.90
68012;BMP180;54794;48.348;7.878;2022-09-02T02:13:05;98909.00;;;22.90
68012;BMP180;54794;48.348;7.878;2022-09-02T02:15:32;98905.00;;;22.90
68012;BMP180;54794;48.348;7.878;2022-09-02T02:17:57;98897.00;;;22.90
68012;BMP180;54794;48.348;7.878;2022-09-02T02:20:24;98896.00;;;22.90
68012;BMP180;54794;48.348;7.878;2022-09-02T02:22:52;98901.00;;;22.80
68012;BMP180;54794;48.348;7.878;2022-09-02T02:25:19;98906.00;;;22.80
68012;BMP180;54794;48.348;7.878;2022-09-02T02:27:46;98905.00;;;22.80
68012;BMP180;54794;48.348;7.878;2022-09-02T02:30:15;98874.00;;;22.80
68012;BMP180;54794;48.348;7.878;2022-09-02T02:32:43;98890.00;;;22.70
68012;BMP180;54794;48.348;7.878;2022-09-02T02:35:14;98897.00;;;22.70
68012;BMP180;54794;48.348;7.878;2022-09-02T02:37:42;98893.00;;;22.70
68012;BMP180;54794;48.348;7.878;2022-09-02T02:40:10;98887.00;;;22.70
68012;BMP180;54794;48.348;7.878;2022-09-02T02:42:37;98886.00;;;22.60
68012;BMP180;54794;48.348;7.878;2022-09-02T02:45:05;98873.00;;;22.60
68012;BMP180;54794;48.348;7.878;2022-09-02T02:47:41;98888.00;;;22.60
68012;BMP180;54794;48.348;7.878;2022-09-02T02:50:11;98901.00;;;22.60
68012;BMP180;54794;48.348;7.878;2022-09-02T02:52:40;98900.00;;;22.60
68012;BMP180;54794;48.348;7.878;2022-09-02T02:55:09;98891.00;;;22.60
68012;BMP180;54794;48.348;7.878;2022-09-02T02:57:38;98903.00;;;22.50
68012;BMP180;54794;48.348;7.878;2022-09-02T03:00:29;98888.00;;;22.60
68012;BMP180;54794;48.348;7.878;2022-09-02T03:02:58;98896.00;;;22.50
68012;BMP180;54794;48.348;7.878;2022-09-02T03:05:26;98898.00;;;22.50
68012;BMP180;54794;48.348;7.878;2022-09-02T03:07:53;98904.00;;;22.50
68012;BMP180;54794;48.348;7.878;2022-09-02T03:10:21;98901.00;;;22.50
68012;BMP180;54794;48.348;7.878;2022-09-02T03:12:49;98908.00;;;22.50
68012;BMP180;54794;48.348;7.878;2022-09-02T03:15:18;98903.00;;;22.40
68012;BMP180;54794;48.348;7.878;2022-09-02T03:17:46;98891.00;;;22.40
68012;BMP180;54794;48.348;7.878;2022-09-02T03:20:14;98913.00;;;22.40
68012;BMP180;54794;48.348;7.878;2022-09-02T03:22:42;98901.00;;;22.40
68012;BMP180;54794;48.348;7.878;2022-09-02T03:25:12;98905.00;;;22.40
68012;BMP180;54794;48.348;7.878;2022-09-02T03:27:40;98905.00;;;22.40
68012;BMP180;54794;48.348;7.878;2022-09-02T03:30:10;98902.00;;;22.40
68012;BMP180;54794;48.348;7.878;2022-09-02T03:32:37;98904.00;;;22.40
68012;BMP180;54794;48.348;7.878;2022-09-02T03:35:06;98890.00;;;22.40
68012;BMP180;54794;48.348;7.878;2022-09-02T03:37:35;98904.00;;;22.40
68012;BMP180;54794;48.348;7.878;2022-09-02T03:40:08;98899.00;;;22.30
68012;BMP180;54794;48.348;7.878;2022-09-02T03:42:36;98895.00;;;22.40
68012;BMP180;54794;48.348;7.878;2022-09-02T03:45:06;98905.00;;;22.30
68012;BMP180;54794;48.348;7.878;2022-09-02T03:47:34;98895.00;;;22.30
68012;BMP180;54794;48.348;7.878;2022-09-02T03:50:02;98902.00;;;22.30
68012;BMP180;54794;48.348;7.878;2022-09-02T03:52:29;98899.00;;;22.30
68012;BMP180;54794;48.348;7.878;2022-09-02T03:54:56;98906.00;;;22.30
68012;BMP180;54794;48.348;7.878;2022-09-02T03:57:23;98906.00;;;22.30
68012;BMP180;54794;48.348;7.878;2022-09-02T03:59:53;98894.00;;;22.30
68012;BMP180;54794;48.348;7.878;2022-09-02T04:02:20;98899.00;;;22.30
68012;BMP180;54794;48.348;7.878;2022-09-02T04:04:47;98907.00;;;22.30
68012;BMP180;54794;48.348;7.878;2022-09-02T04:07:14;98903.00;;;22.30
68012;BMP180;54794;48.348;7.878;2022-09-02T04:09:41;98903.00;;;22.20
68012;BMP180;54794;48.348;7.878;2022-09-02T04:12:12;98895.00;;;22.20
68012;BMP180;54794;48.348;7.878;2022-09-02T04:14:39;98885.00;;;22.20
68012;BMP180;54794;48.348;7.878;2022-09-02T04:17:07;98896.00;;;22.20
68012;BMP180;54794;48.348;7.878;2022-09-02T04:19:34;98902.00;;;22.20
68012;BMP180;54794;48.348;7.878;2022-09-02T04:22:03;98877.00;;;22.20
68012;BMP180;54794;48.348;7.878;2022-09-02T04:24:29;98889.00;;;22.20
68012;BMP180;54794;48.348;7.878;2022-09-02T04:26:56;98895.00;;;22.20
68012;BMP180;54794;48.348;7.878;2022-09-02T04:29:29;98889.00;;;22.10
68012;BMP180;54794;48.348;7.878;2022-09-02T04:31:57;98891.00;;;22.10
68012;BMP180;54794;48.348;7.878;2022-09-02T04:34:24;98886.00;;;22.10
68012;BMP180;54794;48.348;7.878;2022-09-02T04:36:51;98892.00;;;22.10
68012;BMP180;54794;48.348;7.878;2022-09-02T04:39:18;98894.00;;;22.10
68012;BMP180;54794;48.348;7.878;2022-09-02T04:41:46;98881.00;;;22.00
68012;BMP180;54794;48.348;7.878;2022-09-02T04:44:13;98893.00;;;22.00
68012;BMP180;54794;48.348;7.878;2022-09-02T04:46:39;98897.00;;;22.00
68012;BMP180;54794;48.348;7.878;2022-09-02T04:49:06;98888.00;;;21.90
68012;BMP180;54794;48.348;7.878;2022-09-02T04:51:34;98880.00;;;21.90
68012;BMP180;54794;48.348;7.878;2022-09-02T04:54:00;98879.00;;;21.80
68012;BMP180;54794;48.348;7.878;2022-09-02T04:56:28;98894.00;;;21.80
68012;BMP180;54794;48.348;7.878;2022-09-02T04:58:57;98889.00;;;21.80
68012;BMP180;54794;48.348;7.878;2022-09-02T05:01:30;98897.00;;;21.70
68012;BMP180;54794;48.348;7.878;2022-09-02T05:03:58;98884.00;;;21.70
68012;BMP180;54794;48.348;7.878;2022-09-02T05:06:26;98899.00;;;21.60
68012;BMP180;54794;48.348;7.878;2022-09-02T05:08:55;98889.00;;;21.60
68012;BMP180;54794;48.348;7.878;2022-09-02T05:11:24;98888.00;;;21.60
68012;BMP180;54794;48.348;7.878;2022-09-02T05:13:56;98902.00;;;21.60
68012;BMP180;54794;48.348;7.878;2022-09-02T05:16:26;98900.00;;;21.60
68012;BMP180;54794;48.348;7.878;2022-09-02T05:18:53;98893.00;;;21.60
68012;BMP180;54794;48.348;7.878;2022-09-02T05:21:21;98906.00;;;21.50
68012;BMP180;54794;48.348;7.878;2022-09-02T05:23:50;98906.00;;;21.60
68012;BMP180;54794;48.348;7.878;2022-09-02T05:26:20;98903.00;;;21.50
68012;BMP180;54794;48.348;7.878;2022-09-02T05:28:48;98917.00;;;21.60
68012;BMP180;54794;48.348;7.878;2022-09-02T05:31:17;98908.00;;;21.60
68012;BMP180;54794;48.348;7.878;2022-09-02T05:33:45;98921.00;;;21.50
68012;BMP180;54794;48.348;7.878;2022-09-02T05:36:17;98914.00;;;21.50
68012;BMP180;54794;48.348;7.878;2022-09-02T05:38:45;98897.00;;;21.50
68012;BMP180;54794;48.348;7.878;2022-09-02T05:41:15;98906.00;;;21.50
68012;BMP180;54794;48.348;7.878;2022-09-02T05:43:43;98909.00;;;21.50
68012;BMP180;54794;48.348;7.878;2022-09-02T05:46:13;98898.00;;;21.50
68012;BMP180;54794;48.348;7.878;2022-09-02T05:48:44;98902.00;;;21.50
68012;BMP180;54794;48.348;7.878;2022-09-02T05:51:33;98895.00;;;21.50
68012;BMP180;54794;48.348;7.878;2022-09-02T05:54:00;98899.00;;;21.50
68012;BMP180;54794;48.348;7.878;2022-09-02T05:56:27;98898.00;;;21.50
68012;BMP180;54794;48.348;7.878;2022-09-02T05:58:55;98901.00;;;21.50
68012;BMP180;54794;48.348;7.878;2022-09-02T06:01:26;98905.00;;;21.50
68012;BMP180;54794;48.348;7.878;2022-09-02T06:03:53;98904.00;;;21.50
68012;BMP180;54794;48.348;7.878;2022-09-02T06:06:21;98911.00;;;21.50
68012;BMP180;54794;48.348;7.878;2022-09-02T06:08:49;98888.00;;;21.60
68012;BMP180;54794;48.348;7.878;2022-09-02T06:11:17;98894.00;;;21.60
68012;BMP180;54794;48.348;7.878;2022-09-02T06:13:44;98907.00;;;21.60
68012;BMP180;54794;48.348;7.878;2022-09-02T06:16:13;98910.00;;;21.60
68012;BMP180;54794;48.348;7.878;2022-09-02T06:18:40;98900.00;;;21.70
68012;BMP180;54794;48.348;7.878;2022-09-02T06:21:08;98902.00;;;21.70
68012;BMP180;54794;48.348;7.878;2022-09-02T06:23:36;98899.00;;;21.70
68012;BMP180;54794;48.348;7.878;2022-09-02T06:26:06;98905.00;;;21.70
68012;BMP180;54794;48.348;7.878;2022-09-02T06:28:33;98897.00;;;21.70
68012;BMP180;54794;48.348;7.878;2022-09-02T06:31:09;98902.00;;;21.80
68012;BMP180;54794;48.348;7.878;2022-09-02T06:33:36;98894.00;;;21.80
68012;BMP180;54794;48.348;7.878;2022-09-02T06:36:08;98895.00;;;21.80
68012;BMP180;54794;48.348;7.878;2022-09-02T06:38:40;98900.00;;;21.90
68012;BMP180;54794;48.348;7.878;2022-09-02T06:41:14;98899.00;;;21.90
68012;BMP180;54794;48.348;7.878;2022-09-02T06:43:41;98903.00;;;21.90
68012;BMP180;54794;48.348;7.878;2022-09-02T06:46:14;98885.00;;;21.90
68012;BMP180;54794;48.348;7.878;2022-09-02T06:48:41;98895.00;;;22.00
68012;BMP180;54794;48.348;7.878;2022-09-02T06:51:18;98897.00;;;22.00
68012;BMP180;54794;48.348;7.878;2022-09-02T06:53:45;98882.00;;;22.00
68012;BMP180;54794;48.348;7.878;2022-09-02T06:56:12;98893.00;;;22.10
68012;BMP180;54794;48.348;7.878;2022-09-02T06:58:39;98885.00;;;22.10
68012;BMP180;54794;48.348;7.878;2022-09-02T07:01:06;98874.00;;;22.20
68012;BMP180;54794;48.348;7.878;2022-09-02T07:03:33;98885.00;;;22.20
68012;BMP180;54794;48.348;7.878;2022-09-02T07:06:18;98883.00;;;22.30
68012;BMP180;54794;48.348;7.878;2022-09-02T07:08:45;98889.00;;;22.30
68012;BMP180;54794;48.348;7.878;2022-09-02T07:11:21;98885.00;;;22.40
68012;BMP180;54794;48.348;7.878;2022-09-02T07:13:48;98881.00;;;22.40
68012;BMP180;54794;48.348;7.878;2022-09-02T07:16:16;98882.00;;;22.50
68012;BMP180;54794;48.348;7.878;2022-09-02T07:18:52;98872.00;;;22.60
68012;BMP180;54794;48.348;7.878;2022-09-02T07:21:18;98881.00;;;22.60
68012;BMP180;54794;48.348;7.878;2022-09-02T07:23:45;98883.00;;;22.70
68012;BMP180;54794;48.348;7.878;2022-09-02T07:26:15;98874.00;;;22.70
68012;BMP180;54794;48.348;7.878;2022-09-02T07:28:42;98886.00;;;22.80
68012;BMP180;54794;48.348;7.878;2022-09-02T07:31:10;98891.00;;;22.90
68012;BMP180;54794;48.348;7.878;2022-09-02T07:33:37;98876.00;;;22.90
68012;BMP180;54794;48.348;7.878;2022-09-02T07:36:05;98878.00;;;23.00
68012;BMP180;54794;48.348;7.878;2022-09-02T07:38:39;98886.00;;;23.10
68012;BMP180;54794;48.348;7.878;2022-09-02T07:41:08;98880.00;;;23.10
68012;BMP180;54794;48.348;7.878;2022-09-02T07:43:36;98881.00;;;23.20
68012;BMP180;54794;48.348;7.878;2022-09-02T07:46:04;98870.00;;;23.20
68012;BMP180;54794;48.348;7.878;2022-09-02T07:48:32;98877.00;;;23.30
68012;BMP180;54794;48.348;7.878;2022-09-02T07:51:00;98881.00;;;23.40
68012;BMP180;54794;48.348;7.878;2022-09-02T07:53:28;98885.00;;;23.40
68012;BMP180;54794;48.348;7.878;2022-09-02T07:55:55;98895.00;;;23.50
68012;BMP180;54794;48.348;7.878;2022-09-02T07:58:22;98882.00;;;23.60
68012;BMP180;54794;48.348;7.878;2022-09-02T08:00:49;98885.00;;;23.60
68012;BMP180;54794;48.348;7.878;2022-09-02T08:03:17;98888.00;;;23.70
68012;BMP180;54794;48.348;7.878;2022-09-02T08:05:45;98882.00;;;23.80
68012;BMP180;54794;48.348;7.878;2022-09-02T08:08:14;98902.00;;;23.90
68012;BMP180;54794;48.348;7.878;2022-09-02T08:10:42;98892.00;;;23.90
68012;BMP180;54794;48.348;7.878;2022-09-02T08:13:08;98888.00;;;24.00
68012;BMP180;54794;48.348;7.878;2022-09-02T08:15:37;98902.00;;;24.10
68012;BMP180;54794;48.348;7.878;2022-09-02T08:18:05;98898.00;;;24.20
68012;BMP180;54794;48.348;7.878;2022-09-02T08:20:34;98887.00;;;24.30
68012;BMP180;54794;48.348;7.878;2022-09-02T08:23:03;98893.00;;;24.40
68012;BMP180;54794;48.348;7.878;2022-09-02T08:25:43;98875.00;;;24.50
68012;BMP180;54794;48.348;7.878;2022-09-02T08:28:11;98873.00;;;24.60
68012;BMP180;54794;48.348;7.878;2022-09-02T08:30:38;98874.00;;;24.70
68012;BMP180;54794;48.348;7.878;2022-09-02T08:33:05;98872.00;;;24.80
68012;BMP180;54794;48.348;7.878;2022-09-02T08:35:32;98872.00;;;24.90
68012;BMP180;54794;48.348;7.878;2022-09-02T08:37:59;98882.00;;;25.00
68012;BMP180;54794;48.348;7.878;2022-09-02T08:40:36;98870.00;;;25.10
68012;BMP180;54794;48.348;7.878;2022-09-02T08:43:13;98857.00;;;25.20
68012;BMP180;54794;48.348;7.878;2022-09-02T08:45:44;98869.00;;;25.20
68012;BMP180;54794;48.348;7.878;2022-09-02T08:48:31;98864.00;;;25.40
68012;BMP180;54794;48.348;7.878;2022-09-02T08:51:19;98869.00;;;25.60
68012;BMP180;54794;48.348;7.878;2022-09-02T08:54:08;98866.00;;;25.70
68012;BMP180;54794;48.348;7.878;2022-09-02T08:56:38;98852.00;;;25.80
68012;BMP180;54794;48.348;7.878;2022-09-02T08:59:07;98865.00;;;25.90
68012;BMP180;54794;48.348;7.878;2022-09-02T09:01:44;98857.00;;;26.10
68012;BMP180;54794;48.348;7.878;2022-09-02T09:06:47;98863.00;;;26.30
68012;BMP180;54794;48.348;7.878;2022-09-02T09:09:43;98859.00;;;26.40
68012;BMP180;54794;48.348;7.878;2022-09-02T09:12:27;98861.00;;;26.50
68012;BMP180;54794;48.348;7.878;2022-09-02T09:17:43;98861.00;;;26.80
68012;BMP180;54794;48.348;7.878;2022-09-02T09:20:16;98861.00;;;26.90
68012;BMP180;54794;48.348;7.878;2022-09-02T09:22:47;98850.00;;;27.00
68012;BMP180;54794;48.348;7.878;2022-09-02T09:25:16;98861.00;;;27.20
68012;BMP180;54794;48.348;7.878;2022-09-02T09:27:44;98857.00;;;27.30
68012;BMP180;54794;48.348;7.878;2022-09-02T09:30:12;98859.00;;;27.40
68012;BMP180;54794;48.348;7.878;2022-09-02T09:32:51;98852.00;;;27.50
68012;BMP180;54794;48.348;7.878;2022-09-02T09:35:20;98841.00;;;27.70
68012;BMP180;54794;48.348;7.878;2022-09-02T09:37:49;98851.00;;;27.80
68012;BMP180;54794;48.348;7.878;2022-09-02T09:45:34;98836.00;;;28.10
68012;BMP180;54794;48.348;7.878;2022-09-02T09:48:07;98826.00;;;28.20
68012;BMP180;54794;48.348;7.878;2022-09-02T09:50:36;98824.00;;;28.30
68012;BMP180;54794;48.348;7.878;2022-09-02T09:53:38;98820.00;;;28.40
68012;BMP180;54794;48.348;7.878;2022-09-02T09:58:48;98813.00;;;28.60
68012;BMP180;54794;48.348;7.878;2022-09-02T10:01:32;98813.00;;;28.70
68012;BMP180;54794;48.348;7.878;2022-09-02T10:04:06;98806.00;;;28.80
68012;BMP180;54794;48.348;7.878;2022-09-02T10:06:53;98804.00;;;28.90
68012;BMP180;54794;48.348;7.878;2022-09-02T10:11:54;98804.00;;;29.10
68012;BMP180;54794;48.348;7.878;2022-09-02T10:14:21;98798.00;;;29.20
68012;BMP180;54794;48.348;7.878;2022-09-02T10:17:09;98806.00;;;29.20
68012;BMP180;54794;48.348;7.878;2022-09-02T10:19:49;98798.00;;;29.30
68012;BMP180;54794;48.348;7.878;2022-09-02T10:25:34;98797.00;;;29.50
68012;BMP180;54794;48.348;7.878;2022-09-02T10:36:25;98787.00;;;29.80
68012;BMP180;54794;48.348;7.878;2022-09-02T10:39:01;98777.00;;;29.90
68012;BMP180;54794;48.348;7.878;2022-09-02T10:41:53;98787.00;;;29.90
68012;BMP180;54794;48.348;7.878;2022-09-02T10:44:31;98788.00;;;30.10
68012;BMP180;54794;48.348;7.878;2022-09-02T10:47:00;98793.00;;;30.20
68012;BMP180;54794;48.348;7.878;2022-09-02T10:52:31;98785.00;;;30.40
68012;BMP180;54794;48.348;7.878;2022-09-02T10:58:01;98772.00;;;30.50
68012;BMP180;54794;48.348;7.878;2022-09-02T11:00:30;98767.00;;;30.60
68012;BMP180;54794;48.348;7.878;2022-09-02T11:05:52;98771.00;;;30.80
68012;BMP180;54794;48.348;7.878;2022-09-02T11:25:13;98783.00;;;31.40
68012;BMP180;54794;48.348;7.878;2022-09-02T11:27:49;98762.00;;;31.50
68012;BMP180;54794;48.348;7.878;2022-09-02T11:30:20;98764.00;;;31.50
68012;BMP180;54794;48.348;7.878;2022-09-02T11:35:37;98754.00;;;31.60
68012;BMP180;54794;48.348;7.878;2022-09-02T11:38:39;98757.00;;;31.70
68012;BMP180;54794;48.348;7.878;2022-09-02T11:47:05;98752.00;;;32.00
68012;BMP180;54794;48.348;7.878;2022-09-02T11:55:14;98748.00;;;32.20
68012;BMP180;54794;48.348;7.878;2022-09-02T11:57:42;98745.00;;;32.30
68012;BMP180;54794;48.348;7.878;2022-09-02T12:03:26;98728.00;;;32.40
68012;BMP180;54794;48.348;7.878;2022-09-02T12:06:16;98738.00;;;32.50
68012;BMP180;54794;48.348;7.878;2022-09-02T12:11:34;98738.00;;;32.70
68012;BMP180;54794;48.348;7.878;2022-09-02T12:14:09;98730.00;;;32.70
68012;BMP180;54794;48.348;7.878;2022-09-02T12:16:41;98729.00;;;32.80
68012;BMP180;54794;48.348;7.878;2022-09-02T12:24:59;98706.00;;;33.10
68012;BMP180;54794;48.348;7.878;2022-09-02T12:27:36;98714.00;;;33.20
68012;BMP180;54794;48.348;7.878;2022-09-02T12:30:06;98706.00;;;33.30
68012;BMP180;54794;48.348;7.878;2022-09-02T12:40:59;98694.00;;;33.60
68012;BMP180;54794;48.348;7.878;2022-09-02T12:51:56;98673.00;;;33.90
68012;BMP180;54794;48.348;7.878;2022-09-02T12:54:30;98664.00;;;34.00
68012;BMP180;54794;48.348;7.878;2022-09-02T12:56:57;98665.00;;;34.00
68012;BMP180;54794;48.348;7.878;2022-09-02T12:59:28;98656.00;;;34.10
68012;BMP180;54794;48.348;7.878;2022-09-02T13:10:55;98647.00;;;34.30
68012;BMP180;54794;48.348;7.878;2022-09-02T13:13:49;98652.00;;;34.40
68012;BMP180;54794;48.348;7.878;2022-09-02T13:33:18;98611.00;;;34.90
68012;BMP180;54794;48.348;7.878;2022-09-02T13:35:45;98625.00;;;34.90
68012;BMP180;54794;48.348;7.878;2022-09-02T13:38:12;98618.00;;;35.00
68012;BMP180;54794;48.348;7.878;2022-09-02T13:40:44;98618.00;;;35.00
68012;BMP180;54794;48.348;7.878;2022-09-02T13:45:38;98617.00;;;35.10
68012;BMP180;54794;48.348;7.878;2022-09-02T13:50:49;98608.00;;;35.30
68012;BMP180;54794;48.348;7.878;2022-09-02T13:53:38;98600.00;;;35.30
68012;BMP180;54794;48.348;7.878;2022-09-02T13:56:28;98604.00;;;35.30
68012;BMP180;54794;48.348;7.878;2022-09-02T13:58:56;98586.00;;;35.30
68012;BMP180;54794;48.348;7.878;2022-09-02T14:01:30;98599.00;;;35.30
68012;BMP180;54794;48.348;7.878;2022-09-02T14:04:01;98590.00;;;35.40
68012;BMP180;54794;48.348;7.878;2022-09-02T14:06:36;98602.00;;;35.40
68012;BMP180;54794;48.348;7.878;2022-09-02T14:09:06;98590.00;;;35.40
68012;BMP180;54794;48.348;7.878;2022-09-02T14:11:40;98607.00;;;35.40
68012;BMP180;54794;48.348;7.878;2022-09-02T14:14:13;98611.00;;;35.40
68012;BMP180;54794;48.348;7.878;2022-09-02T14:16:40;98599.00;;;35.40
68012;BMP180;54794;48.348;7.878;2022-09-02T14:21:46;98598.00;;;35.40
68012;BMP180;54794;48.348;7.878;2022-09-02T14:24:16;98597.00;;;35.30
68012;BMP180;54794;48.348;7.878;2022-09-02T14:26:46;98588.00;;;35.30
68012;BMP180;54794;48.348;7.878;2022-09-02T14:29:15;98591.00;;;35.30
68012;BMP180;54794;48.348;7.878;2022-09-02T14:31:43;98580.00;;;35.20
68012;BMP180;54794;48.348;7.878;2022-09-02T14:34:30;98584.00;;;35.20
68012;BMP180;54794;48.348;7.878;2022-09-02T14:36:57;98597.00;;;35.20
68012;BMP180;54794;48.348;7.878;2022-09-02T14:39:24;98587.00;;;35.10
68012;BMP180;54794;48.348;7.878;2022-09-02T14:41:53;98600.00;;;35.10
68012;BMP180;54794;48.348;7.878;2022-09-02T14:44:32;98586.00;;;35.00
68012;BMP180;54794;48.348;7.878;2022-09-02T14:47:05;98592.00;;;35.00
68012;BMP180;54794;48.348;7.878;2022-09-02T14:49:38;98591.00;;;35.00
68012;BMP180;54794;48.348;7.878;2022-09-02T14:52:30;98593.00;;;34.90
68012;BMP180;54794;48.348;7.878;2022-09-02T14:55:03;98594.00;;;34.80
68012;BMP180;54794;48.348;7.878;2022-09-02T14:57:33;98605.00;;;34.80
68012;BMP180;54794;48.348;7.878;2022-09-02T15:00:05;98599.00;;;34.70
68012;BMP180;54794;48.348;7.878;2022-09-02T15:02:42;98602.00;;;34.70
68012;BMP180;54794;48.348;7.878;2022-09-02T15:05:11;98592.00;;;34.70
68012;BMP180;54794;48.348;7.878;2022-09-02T15:07:42;98593.00;;;34.70
68012;BMP180;54794;48.348;7.878;2022-09-02T15:10:09;98591.00;;;34.70
68012;BMP180;54794;48.348;7.878;2022-09-02T15:12:42;98587.00;;;34.70
68012;BMP180;54794;48.348;7.878;2022-09-02T15:15:12;98582.00;;;34.60
68012;BMP180;54794;48.348;7.878;2022-09-02T15:17:38;98585.00;;;34.60
68012;BMP180;54794;48.348;7.878;2022-09-02T15:20:06;98583.00;;;34.50
68012;BMP180;54794;48.348;7.878;2022-09-02T15:22:36;98585.00;;;34.50
68012;BMP180;54794;48.348;7.878;2022-09-02T15:25:05;98594.00;;;34.50
68012;BMP180;54794;48.348;7.878;2022-09-02T15:27:34;98596.00;;;34.40
68012;BMP180;54794;48.348;7.878;2022-09-02T15:30:02;98596.00;;;34.40
68012;BMP180;54794;48.348;7.878;2022-09-02T15:32:29;98600.00;;;34.30
68012;BMP180;54794;48.348;7.878;2022-09-02T15:34:56;98595.00;;;34.30
68012;BMP180;54794;48.348;7.878;2022-09-02T15:37:23;98585.00;;;34.30
68012;BMP180;54794;48.348;7.878;2022-09-02T15:39:50;98595.00;;;34.30
68012;BMP180;54794;48.348;7.878;2022-09-02T15:42:17;98594.00;;;34.30
68012;BMP180;54794;48.348;7.878;2022-09-02T15:44:44;98591.00;;;34.20
68012;BMP180;54794;48.348;7.878;2022-09-02T15:47:11;98600.00;;;34.10
68012;BMP180;54794;48.348;7.878;2022-09-02T15:49:38;98601.00;;;34.10
68012;BMP180;54794;48.348;7.878;2022-09-02T15:52:05;98588.00;;;34.10
68012;BMP180;54794;48.348;7.878;2022-09-02T15:54:32;98594.00;;;34.00
68012;BMP180;54794;48.348;7.878;2022-09-02T15:56:59;98599.00;;;34.00
68012;BMP180;54794;48.348;7.878;2022-09-02T15:59:26;98598.00;;;33.90
68012;BMP180;54794;48.348;7.878;2022-09-02T16:01:55;98600.00;;;33.80
68012;BMP180;54794;48.348;7.878;2022-09-02T16:04:22;98595.00;;;33.70
68012;BMP180;54794;48.348;7.878;2022-09-02T16:06:51;98607.00;;;33.60
68012;BMP180;54794;48.348;7.878;2022-09-02T16:09:18;98610.00;;;33.50
68012;BMP180;54794;48.348;7.878;2022-09-02T16:11:47;98595.00;;;33.40
68012;BMP180;54794;48.348;7.878;2022-09-02T16:14:15;98613.00;;;33.30
68012;BMP180;54794;48.348;7.878;2022-09-02T16:16:47;98604.00;;;33.20
68012;BMP180;54794;48.348;7.878;2022-09-02T16:19:18;98611.00;;;33.10
68012;BMP180;54794;48.348;7.878;2022-09-02T16:21:44;98616.00;;;32.90
68012;BMP180;54794;48.348;7.878;2022-09-02T16:24:11;98618.00;;;32.80
68012;BMP180;54794;48.348;7.878;2022-09-02T16:26:40;98623.00;;;32.70
68012;BMP180;54794;48.348;7.878;2022-09-02T16:29:09;98624.00;;;32.60
68012;BMP180;54794;48.348;7.878;2022-09-02T16:31:40;98611.00;;;32.60
68012;BMP180;54794;48.348;7.878;2022-09-02T16:34:12;98617.00;;;32.50
68012;BMP180;54794;48.348;7.878;2022-09-02T16:36:41;98603.00;;;32.40